KEQY

Details ICAO KEQY
Name Monroe Rgnl
Region United States
Timezone America/New_York (UTC-5.0)
Plans Departing 28
Arriving 25
Stats Elevation 679 ft / 207 m (AMSL)
Location 35.018803° -80.620231°
Runways 1
Magnetic Variation 7.868° W
Sunrise 2017-12-16 12:25:20 UTC / 2017-12-16 07:25:20 Local
Sunset 2017-12-16 22:13:52 UTC / 2017-12-16 17:13:52 Local
Advertisement - Login to hide

Runways

ID Width Length Bearing (true) Bearing (mag) Surface Threshold Offset Overrun Length
05 98 ft / 30 m 5,501 ft / 1,677 m 46.87° 54.74° Asphalt 0 ft / 0 m 0 ft / 0 m
23 98 ft / 30 m 5,501 ft / 1,677 m 226.87° 234.74° Asphalt 0 ft / 0 m 0 ft / 0 m

Approach Navaids

Runway Type Ident Frequency Range Bearing (true) Bearing (mag) Slope Elevation
05 Localiser IEQY 109.75 MHz 18 nm / 33 km 46.90° 54.77° - 679 ft / 207 m (AMSL)
05 Glidescope IEQY 109.75 MHz 10 nm / 19 km 46.90° 54.77° 3.00° 679 ft / 207 m (AMSL)

Map

Weather


0- 5 10 15 20 25 30 35+ Temperature / ° C

Clouds and Precipitation
Forecast for 2017-12-17 00:00 UTC. Updated an hour ago

Ground ~20,000 ft ~40,000 ft Winds

METAR

KEQY 161953Z AUTO 26007KT 10SM CLR 09/M04 A3020 RMK AO2 SLP248 T00941044

TAF

Not found

Frequencies

Recorded 135.77 MHz ASOS
Clearance 132.55 MHz CLNC DEL
Unicom 122.70 MHz CTAF/UNICOM
Approach 120.05 MHz CHARLOTTE APP/DEP
Warning: Do not use this data for real-world aviation or navigation. No guarantee of current accuracy is given.